createdAt,value
2022-08-11T00:01:15.981Z,100.00
2022-08-11T00:03:54.254Z,100.00
2022-08-11T00:06:37.734Z,100.00
2022-08-11T00:09:07.394Z,100.00
2022-08-11T00:11:46.039Z,100.00
2022-08-11T00:14:36.915Z,100.00
2022-08-11T00:17:07.029Z,100.00
2022-08-11T00:20:14.007Z,100.00
2022-08-11T00:22:29.888Z,100.00
2022-08-11T00:25:01.750Z,100.00
2022-08-11T00:27:37.625Z,100.00
2022-08-11T00:30:06.023Z,100.00
2022-08-11T00:32:33.065Z,100.00
2022-08-11T00:35:51.762Z,100.00
2022-08-11T00:37:50.361Z,100.00
2022-08-11T00:40:37.044Z,100.00
2022-08-11T00:43:24.476Z,100.00
2022-08-11T00:46:53.030Z,100.00
2022-08-11T00:49:42.861Z,100.00
2022-08-11T00:52:33.412Z,100.00
2022-08-11T00:55:12.168Z,100.00
2022-08-11T00:58:29.400Z,100.00
2022-08-11T01:01:25.320Z,100.00
2022-08-11T01:04:23.096Z,100.00
2022-08-11T01:06:57.306Z,100.00
2022-08-11T01:09:54.941Z,100.00
2022-08-11T01:12:33.735Z,100.00
2022-08-11T01:15:13.472Z,100.00
2022-08-11T01:17:55.131Z,100.00
2022-08-11T01:21:19.176Z,100.00
2022-08-11T01:24:23.001Z,100.00
2022-08-11T01:27:18.835Z,100.00
2022-08-11T01:30:10.251Z,100.00
2022-08-11T01:33:01.473Z,100.00
2022-08-11T01:35:35.883Z,100.00
2022-08-11T01:38:25.254Z,100.00
2022-08-11T01:41:23.100Z,100.00
2022-08-11T01:44:12.728Z,100.00
2022-08-11T01:46:43.879Z,100.00
2022-08-11T01:50:09.786Z,100.00
2022-08-11T01:52:34.917Z,100.00
2022-08-11T01:55:25.076Z,100.00
2022-08-11T01:58:15.687Z,100.00
2022-08-11T02:01:20.984Z,100.00
2022-08-11T02:04:07.735Z,100.00
2022-08-11T02:06:58.239Z,100.00
2022-08-11T02:09:49.575Z,100.00
2022-08-11T02:12:27.610Z,100.00
2022-08-11T02:15:08.536Z,100.00
2022-08-11T02:18:10.338Z,100.00
2022-08-11T02:21:24.142Z,100.00
2022-08-11T02:24:05.182Z,100.00
2022-08-11T02:26:44.146Z,100.00
2022-08-11T02:29:22.888Z,100.00
2022-08-11T02:32:36.800Z,100.00
2022-08-11T02:35:26.972Z,100.00
2022-08-11T02:37:56.623Z,100.00
2022-08-11T02:40:35.292Z,100.00
2022-08-11T02:43:10.258Z,100.00
2022-08-11T02:45:39.753Z,100.00
2022-08-11T02:48:48.179Z,100.00
2022-08-11T02:51:53.924Z,100.00
2022-08-11T02:54:44.978Z,100.00
2022-08-11T02:57:35.151Z,100.00
2022-08-11T03:00:13.101Z,100.00
2022-08-11T03:02:41.221Z,100.00
2022-08-11T03:05:17.633Z,100.00
2022-08-11T03:08:06.410Z,100.00
2022-08-11T03:11:14.866Z,100.00
2022-08-11T03:14:23.450Z,100.00
2022-08-11T03:16:58.949Z,100.00
2022-08-11T03:19:25.408Z,100.00
2022-08-11T03:22:13.343Z,100.00
2022-08-11T03:24:53.932Z,100.00
2022-08-11T03:27:27.314Z,100.00
2022-08-11T03:30:24.050Z,100.00
2022-08-11T03:33:30.540Z,100.00
2022-08-11T03:36:27.337Z,100.00
2022-08-11T03:39:14.033Z,100.00
2022-08-11T03:42:04.072Z,100.00
2022-08-11T03:45:10.326Z,100.00
2022-08-11T03:48:04.941Z,100.00
2022-08-11T03:50:56.350Z,100.00
2022-08-11T03:53:45.422Z,100.00
2022-08-11T03:56:30.459Z,100.00
2022-08-11T03:59:41.331Z,100.00
2022-08-11T04:02:31.941Z,100.00
2022-08-11T04:05:11.262Z,100.00
2022-08-11T04:08:15.439Z,100.00
2022-08-11T04:11:13.128Z,100.00
2022-08-11T04:14:29.566Z,100.00
2022-08-11T04:17:22.877Z,100.00
2022-08-11T04:20:09.318Z,100.00
2022-08-11T04:23:06.926Z,100.00
2022-08-11T04:25:58.147Z,100.00
2022-08-11T04:28:50.362Z,100.00
2022-08-11T04:31:44.328Z,100.00
2022-08-11T04:34:19.072Z,100.00
2022-08-11T04:37:16.521Z,100.00
2022-08-11T04:43:15.633Z,100.00
2022-08-11T04:46:03.555Z,100.00
2022-08-11T04:49:11.443Z,100.00
2022-08-11T04:52:16.961Z,100.00
2022-08-11T04:55:41.286Z,100.00
2022-08-11T04:59:01.726Z,100.00
2022-08-11T05:01:42.070Z,100.00
2022-08-11T05:04:55.966Z,100.00
2022-08-11T05:08:06.927Z,100.00
2022-08-11T05:11:02.685Z,100.00
2022-08-11T05:13:51.304Z,100.00
2022-08-11T05:16:41.410Z,100.00
2022-08-11T05:19:35.258Z,100.00
2022-08-11T05:22:21.788Z,100.00
2022-08-11T05:25:15.283Z,100.00
2022-08-11T05:28:37.117Z,100.00
2022-08-11T05:31:27.629Z,100.00
2022-08-11T05:34:19.909Z,100.00
2022-08-11T05:37:11.620Z,100.00
2022-08-11T05:40:04.691Z,100.00
2022-08-11T05:42:51.326Z,100.00
2022-08-11T05:45:57.323Z,100.00
2022-08-11T05:48:43.045Z,100.00
2022-08-11T05:51:30.159Z,100.00
2022-08-11T05:54:28.314Z,100.00
2022-08-11T05:57:00.362Z,100.00
2022-08-11T05:59:28.404Z,100.00
2022-08-11T06:02:01.490Z,100.00
2022-08-11T06:04:28.542Z,100.00
2022-08-11T06:06:57.093Z,100.00
2022-08-11T06:09:29.735Z,100.00
2022-08-11T06:12:00.039Z,100.00
2022-08-11T06:14:27.323Z,100.00
2022-08-11T06:16:59.105Z,100.00
2022-08-11T06:19:33.577Z,100.00
2022-08-11T06:22:01.715Z,100.00
2022-08-11T06:24:29.253Z,100.00
2022-08-11T06:27:13.490Z,100.00
2022-08-11T06:29:55.299Z,100.00
2022-08-11T06:32:30.208Z,100.00
2022-08-11T06:35:06.091Z,100.00
2022-08-11T06:37:36.691Z,100.00
2022-08-11T06:40:15.234Z,100.00
2022-08-11T06:42:55.967Z,100.00
2022-08-11T06:45:41.135Z,100.00
2022-08-11T06:48:16.658Z,100.00
2022-08-11T06:51:10.354Z,100.00
2022-08-11T06:53:41.133Z,100.00
2022-08-11T06:56:27.350Z,100.00
2022-08-11T06:59:20.663Z,100.00
2022-08-11T07:02:12.099Z,100.00
2022-08-11T07:05:15.729Z,100.00
2022-08-11T07:08:33.983Z,100.00
2022-08-11T07:11:20.636Z,100.00
2022-08-11T07:14:06.042Z,100.00
2022-08-11T07:16:34.740Z,100.00
2022-08-11T07:19:25.185Z,100.00
2022-08-11T07:22:10.977Z,100.00
2022-08-11T07:25:02.348Z,100.00
2022-08-11T07:28:02.102Z,100.00
2022-08-11T07:30:29.471Z,100.00
2022-08-11T07:32:59.633Z,100.00
2022-08-11T07:35:39.191Z,100.00
2022-08-11T07:38:08.478Z,100.00
2022-08-11T07:40:35.629Z,100.00
2022-08-11T07:43:03.692Z,100.00
2022-08-11T07:45:49.421Z,100.00
2022-08-11T07:48:35.926Z,100.00
2022-08-11T07:51:21.817Z,100.00
2022-08-11T07:53:58.300Z,100.00
2022-08-11T07:56:54.221Z,100.00
2022-08-11T08:00:00.460Z,100.00
2022-08-11T08:02:46.949Z,100.00
2022-08-11T08:05:33.394Z,100.00
2022-08-11T08:08:18.607Z,98.69
2022-08-11T08:11:03.445Z,100.00
2022-08-11T08:13:51.231Z,100.00
2022-08-11T08:16:36.358Z,100.00
2022-08-11T08:19:03.071Z,97.71
2022-08-11T08:21:29.657Z,94.41
2022-08-11T08:23:58.653Z,95.05
2022-08-11T08:26:51.301Z,93.09
2022-08-11T08:29:38.553Z,89.57
2022-08-11T08:32:05.736Z,87.89
2022-08-11T08:34:33.662Z,84.45
2022-08-11T08:37:01.865Z,82.49
2022-08-11T08:39:29.082Z,80.78
2022-08-11T08:41:57.430Z,74.80
2022-08-11T08:44:42.079Z,71.02
2022-08-11T08:47:15.242Z,63.83
2022-08-11T08:50:08.494Z,59.78
2022-08-11T08:52:43.686Z,57.45
2022-08-11T08:55:17.716Z,55.72
2022-08-11T08:57:45.774Z,54.53
2022-08-11T09:00:23.802Z,50.28
2022-08-11T09:02:51.666Z,47.53
2022-08-11T09:05:19.415Z,43.00
2022-08-11T09:07:47.763Z,39.93
2022-08-11T09:10:17.420Z,40.09
2022-08-11T09:12:44.190Z,39.37
2022-08-11T09:15:12.837Z,36.29
2022-08-11T09:17:46.950Z,34.73
2022-08-11T09:20:25.958Z,36.01
2022-08-11T09:26:30.413Z,34.14
2022-08-11T09:28:58.473Z,33.25
2022-08-11T09:31:26.904Z,30.11
2022-08-11T09:33:54.852Z,29.53
2022-08-11T09:36:40.613Z,29.60
2022-08-11T09:39:26.323Z,30.42
2022-08-11T09:42:01.879Z,29.38
2022-08-11T09:44:50.406Z,30.12
2022-08-11T09:47:23.206Z,29.47
2022-08-11T09:49:52.737Z,29.88
2022-08-11T09:52:19.736Z,28.67
2022-08-11T09:54:48.983Z,27.13
2022-08-11T09:57:37.936Z,27.23
2022-08-11T10:00:13.393Z,27.26
2022-08-11T10:02:48.630Z,26.94
2022-08-11T10:05:36.988Z,26.40
2022-08-11T10:08:04.958Z,26.31
2022-08-11T10:10:35.911Z,25.97
2022-08-11T10:14:31.260Z,25.57
2022-08-11T10:15:59.867Z,25.39
2022-08-11T10:18:50.473Z,24.01
2022-08-11T10:21:28.233Z,23.86
2022-08-11T10:27:04.260Z,22.09
2022-08-11T10:29:52.135Z,22.88
2022-08-11T10:32:57.231Z,22.19
2022-08-11T10:35:27.724Z,21.17
2022-08-11T10:38:07.574Z,21.35
2022-08-11T10:40:39.239Z,20.61
2022-08-11T10:43:10.353Z,21.34
2022-08-11T10:45:57.047Z,20.95
2022-08-11T10:48:26.467Z,20.65
2022-08-11T10:59:55.059Z,21.04
2022-08-11T11:02:21.785Z,20.38
2022-08-11T11:04:56.802Z,19.99
2022-08-11T11:07:27.632Z,19.28
2022-08-11T11:09:59.815Z,19.13
2022-08-11T11:12:54.194Z,18.74
2022-08-11T11:15:41.543Z,19.00
2022-08-11T11:18:35.889Z,18.17
2022-08-11T11:21:08.478Z,17.96
2022-08-11T11:24:05.083Z,18.05
2022-08-11T11:27:31.108Z,18.43
2022-08-11T11:30:08.946Z,19.48
2022-08-11T11:32:35.379Z,19.57
2022-08-11T11:37:56.193Z,19.03
2022-08-11T11:40:32.105Z,18.74
2022-08-11T11:42:59.927Z,18.72
2022-08-11T11:45:26.794Z,18.62
2022-08-11T11:47:59.684Z,18.79
2022-08-11T11:50:33.013Z,19.54
2022-08-11T11:53:01.676Z,20.77
2022-08-11T11:58:27.478Z,19.69
2022-08-11T12:01:14.044Z,19.36
2022-08-11T12:03:41.301Z,19.01
2022-08-11T12:06:08.953Z,18.68
2022-08-11T12:08:37.039Z,18.39
2022-08-11T12:11:24.765Z,18.19
2022-08-11T12:14:00.683Z,18.17
2022-08-11T12:16:34.190Z,18.17
2022-08-11T12:19:04.990Z,17.89
2022-08-11T12:21:32.044Z,17.86
2022-08-11T12:27:24.106Z,18.76
2022-08-11T12:29:57.748Z,19.46
2022-08-11T12:32:31.884Z,19.09
2022-08-11T12:34:59.029Z,18.66
2022-08-11T12:37:45.061Z,18.12
2022-08-11T12:40:56.547Z,18.23
2022-08-11T12:43:43.293Z,17.99
2022-08-11T12:46:18.226Z,16.69
2022-08-11T12:49:06.388Z,16.49
2022-08-11T12:52:11.976Z,16.10
2022-08-11T12:55:03.090Z,16.36
2022-08-11T12:58:04.894Z,16.95
2022-08-11T13:00:50.506Z,15.96
2022-08-11T13:03:38.892Z,15.50
2022-08-11T13:06:06.229Z,15.42
2022-08-11T13:08:37.967Z,15.12
2022-08-11T13:11:23.563Z,15.23
2022-08-11T13:13:57.134Z,15.65
2022-08-11T13:16:57.757Z,15.25
2022-08-11T13:19:24.614Z,16.00
2022-08-11T13:21:52.814Z,15.32
2022-08-11T13:27:02.569Z,15.66
2022-08-11T13:29:29.235Z,15.38
2022-08-11T13:32:00.549Z,15.34
2022-08-11T13:34:31.018Z,14.45
2022-08-11T13:37:00.430Z,15.09
2022-08-11T13:39:29.120Z,14.75
2022-08-11T13:42:01.909Z,15.29
2022-08-11T13:44:31.470Z,15.44
2022-08-11T13:47:01.883Z,15.32
2022-08-11T13:49:30.378Z,15.48
2022-08-11T13:51:57.720Z,14.37
2022-08-11T13:57:13.601Z,14.30
2022-08-11T13:59:56.280Z,14.80
2022-08-11T14:02:30.742Z,15.48
2022-08-11T14:05:17.820Z,14.13
2022-08-11T14:07:51.154Z,14.33
2022-08-11T14:10:34.232Z,14.45
2022-08-11T14:13:25.675Z,14.74
2022-08-11T14:15:53.116Z,14.81
2022-08-11T14:18:27.237Z,14.56
2022-08-11T14:21:14.418Z,14.30
2022-08-11T14:23:42.643Z,14.80
2022-08-11T14:26:32.797Z,15.39
2022-08-11T14:29:06.640Z,15.01
2022-08-11T14:31:33.448Z,14.79
2022-08-11T14:34:04.214Z,15.11
2022-08-11T14:36:34.966Z,16.88
2022-08-11T14:39:04.619Z,16.09
2022-08-11T14:42:07.412Z,15.97
2022-08-11T14:44:57.119Z,15.20
2022-08-11T14:47:25.554Z,14.97
2022-08-11T14:50:11.128Z,15.29
2022-08-11T14:52:59.364Z,15.13
2022-08-11T14:55:46.945Z,14.82
2022-08-11T14:58:17.324Z,14.58
2022-08-11T15:00:44.581Z,14.44
2022-08-11T15:03:13.899Z,13.94
2022-08-11T15:06:02.315Z,13.72
2022-08-11T15:08:49.655Z,14.23
2022-08-11T15:11:36.826Z,14.83
2022-08-11T15:14:05.772Z,14.47
2022-08-11T15:16:51.337Z,14.21
2022-08-11T15:22:28.057Z,14.02
2022-08-11T15:24:55.120Z,13.88
2022-08-11T15:27:41.397Z,14.09
2022-08-11T15:30:33.937Z,14.33
2022-08-11T15:33:26.412Z,14.67
2022-08-11T15:36:13.176Z,15.10
2022-08-11T15:39:07.901Z,15.35
2022-08-11T15:42:02.005Z,15.13
2022-08-11T15:45:06.076Z,16.02
2022-08-11T15:47:49.011Z,16.74
2022-08-11T15:53:01.349Z,15.85
2022-08-11T15:55:37.863Z,16.21
2022-08-11T15:58:26.602Z,15.83
2022-08-11T16:01:12.158Z,16.27
2022-08-11T16:04:12.203Z,16.35
2022-08-11T16:06:47.909Z,16.37
2022-08-11T16:09:20.813Z,16.88
2022-08-11T16:11:48.794Z,16.84
2022-08-11T16:17:33.417Z,16.20
2022-08-11T16:20:03.031Z,16.56
2022-08-11T16:22:41.392Z,16.33
2022-08-11T16:27:05.717Z,16.41
2022-08-11T16:28:13.154Z,16.76
2022-08-11T16:30:43.905Z,16.66
2022-08-11T16:33:48.286Z,16.67
2022-08-11T16:36:16.722Z,17.16
2022-08-11T16:38:43.690Z,16.27
2022-08-11T16:41:17.062Z,16.54
2022-08-11T16:44:04.139Z,16.71
2022-08-11T16:46:50.024Z,16.60
2022-08-11T16:49:19.882Z,16.56
2022-08-11T16:51:46.651Z,16.90
2022-08-11T16:54:13.980Z,17.35
2022-08-11T16:56:50.560Z,17.45
2022-08-11T16:59:36.607Z,17.78
2022-08-11T17:02:07.475Z,18.26
2022-08-11T17:05:12.769Z,18.14
2022-08-11T17:08:01.218Z,18.70
2022-08-11T17:11:26.060Z,18.77
2022-08-11T17:13:52.643Z,18.45
2022-08-11T17:16:40.530Z,18.89
2022-08-11T17:20:41.041Z,19.00
2022-08-11T17:22:27.468Z,19.56
2022-08-11T17:24:56.091Z,20.39
2022-08-11T17:27:23.285Z,20.21
2022-08-11T17:29:55.542Z,21.00
2022-08-11T17:33:00.504Z,21.04
2022-08-11T17:35:35.360Z,21.46
2022-08-11T17:38:21.044Z,21.47
2022-08-11T17:41:24.046Z,21.88
2022-08-11T17:44:10.862Z,21.83
2022-08-11T17:47:03.819Z,22.38
2022-08-11T17:49:37.611Z,22.86
2022-08-11T17:52:24.569Z,23.04
2022-08-11T17:55:10.550Z,23.42
2022-08-11T17:57:59.222Z,24.06
2022-08-11T18:00:26.102Z,26.10
2022-08-11T18:03:27.047Z,27.18
2022-08-11T18:05:54.173Z,28.68
2022-08-11T18:08:39.852Z,30.12
2022-08-11T18:12:10.409Z,30.86
2022-08-11T18:14:34.817Z,31.87
2022-08-11T18:17:20.383Z,32.99
2022-08-11T18:20:05.647Z,33.50
2022-08-11T18:22:56.220Z,34.37
2022-08-11T18:25:53.048Z,34.98
2022-08-11T18:28:44.495Z,35.95
2022-08-11T18:31:32.164Z,36.89
2022-08-11T18:34:21.468Z,37.49
2022-08-11T18:37:22.839Z,37.45
2022-08-11T18:40:23.168Z,38.52
2022-08-11T18:43:09.248Z,39.65
2022-08-11T18:46:06.049Z,39.93
2022-08-11T18:48:53.614Z,40.80
2022-08-11T18:54:45.857Z,41.84
2022-08-11T18:57:32.765Z,41.98
2022-08-11T19:00:23.010Z,42.64
2022-08-11T19:03:09.331Z,43.88
2022-08-11T19:06:08.319Z,43.97
2022-08-11T19:09:01.547Z,44.97
2022-08-11T19:11:48.749Z,45.71
2022-08-11T19:14:36.045Z,46.14
2022-08-11T19:17:44.312Z,46.80
2022-08-11T19:20:39.154Z,48.21
2022-08-11T19:23:25.926Z,49.11
2022-08-11T19:26:21.412Z,49.48
2022-08-11T19:29:08.030Z,50.47
2022-08-11T19:31:54.713Z,51.23
2022-08-11T19:34:42.428Z,52.59
2022-08-11T19:37:29.768Z,53.59
2022-08-11T19:40:34.304Z,55.44
2022-08-11T19:43:24.540Z,56.50
2022-08-11T19:46:14.068Z,58.02
2022-08-11T19:49:02.209Z,59.04
2022-08-11T19:51:53.831Z,59.98
2022-08-11T19:54:45.901Z,60.69
2022-08-11T19:57:35.899Z,61.93
2022-08-11T20:00:35.757Z,63.36
2022-08-11T20:03:25.036Z,64.25
2022-08-11T20:06:10.740Z,65.61
2022-08-11T20:08:59.207Z,67.03
2022-08-11T20:11:46.941Z,67.78
2022-08-11T20:14:32.485Z,69.14
2022-08-11T20:17:18.680Z,70.77
2022-08-11T20:20:03.743Z,70.54
2022-08-11T20:22:49.389Z,72.41
2022-08-11T20:25:35.955Z,73.43
2022-08-11T20:28:22.551Z,74.16
2022-08-11T20:31:08.768Z,75.89
2022-08-11T20:33:54.456Z,77.04
2022-08-11T20:36:40.470Z,77.77
2022-08-11T20:39:25.761Z,78.87
2022-08-11T20:42:11.126Z,80.20
2022-08-11T20:44:57.782Z,81.51
2022-08-11T20:47:59.622Z,82.08
2022-08-11T20:50:46.467Z,84.12
2022-08-11T20:53:35.857Z,84.84
2022-08-11T20:56:28.886Z,85.99
2022-08-11T20:59:18.196Z,87.12
2022-08-11T21:02:09.915Z,88.46
2022-08-11T21:04:57.664Z,89.95
2022-08-11T21:07:50.264Z,90.88
2022-08-11T21:10:43.018Z,92.45
2022-08-11T21:13:33.030Z,92.71
2022-08-11T21:16:26.293Z,94.18
2022-08-11T21:20:00.490Z,96.46
2022-08-11T21:22:59.532Z,97.50
2022-08-11T21:25:53.544Z,99.06
2022-08-11T21:28:39.308Z,100.00
2022-08-11T21:31:26.500Z,100.00
2022-08-11T21:34:11.566Z,100.00
2022-08-11T21:36:59.142Z,100.00
2022-08-11T21:42:51.363Z,100.00
2022-08-11T21:45:36.839Z,100.00
2022-08-11T21:48:23.376Z,100.00
2022-08-11T21:51:08.407Z,100.00
2022-08-11T21:53:54.270Z,100.00
2022-08-11T21:56:40.074Z,100.00
2022-08-11T21:59:25.156Z,100.00
2022-08-11T22:02:12.922Z,100.00
2022-08-11T22:04:59.470Z,100.00
2022-08-11T22:07:46.155Z,100.00
2022-08-11T22:10:41.959Z,100.00
2022-08-11T22:13:32.075Z,100.00
2022-08-11T22:16:18.387Z,100.00
2022-08-11T22:19:05.346Z,100.00
2022-08-11T22:22:03.278Z,100.00
2022-08-11T22:24:52.015Z,100.00
2022-08-11T22:27:39.214Z,100.00
2022-08-11T22:30:28.886Z,100.00
2022-08-11T22:33:16.882Z,100.00
2022-08-11T22:36:06.992Z,100.00
2022-08-11T22:38:54.447Z,100.00
2022-08-11T22:41:43.248Z,100.00
2022-08-11T22:44:28.816Z,100.00
2022-08-11T22:47:20.407Z,100.00
2022-08-11T22:50:10.551Z,100.00
2022-08-11T22:52:56.167Z,100.00
2022-08-11T22:55:41.882Z,100.00
2022-08-11T22:58:27.618Z,100.00
2022-08-11T23:01:13.436Z,100.00
2022-08-11T23:03:59.190Z,100.00
2022-08-11T23:06:44.966Z,100.00
2022-08-11T23:09:30.412Z,100.00
2022-08-11T23:12:16.293Z,100.00
2022-08-11T23:15:01.842Z,100.00
2022-08-11T23:17:47.085Z,100.00
2022-08-11T23:20:45.412Z,100.00
2022-08-11T23:23:37.430Z,100.00
2022-08-11T23:29:22.839Z,100.00
2022-08-11T23:32:08.417Z,100.00
2022-08-11T23:35:03.890Z,100.00
2022-08-11T23:37:50.546Z,100.00
2022-08-11T23:40:35.422Z,100.00
2022-08-11T23:43:20.815Z,100.00
2022-08-11T23:46:13.596Z,100.00
2022-08-11T23:48:59.370Z,100.00
2022-08-11T23:51:51.190Z,100.00
